Home   Weather   Lithuania   Šiauliai   Past weeks
Flag for Lithuania

Past Weather in Šiauliai, Lithuania — Yesterday and Last 2 Weeks

Currently: 61 °F. Passing clouds. (Weather station: Siauliai Intl./Mil., Lithuania). See more current weather

Past Weather in Šiauliai — Graph

°F

Šiauliai Temperature Yesterday

Maximum temperature yesterday: 72 °F (at 3:20 pm)
Minimum temperature yesterday: 45 °F (at 3:20 am)
Average temperature yesterday: 60 °F

High & Low Weather Summary for the Past Weeks

 TemperatureHumidityPressure
High75 °F (May 18, 1:50 pm)100% (May 6, 7:50 pm)30.36 "Hg (May 6, 7:50 pm)
Low30 °F (May 8, 4:20 am)24% (May 5, 3:20 pm)29.71 "Hg (May 6, 4:20 am)
Average53 °F62%30.11 "Hg
* Reported May 3 9:20 pm — May 18 9:50 pm, Šiauliai. Weather by CustomWeather, © 2024

Note: Actual official high and low records may vary slightly from our data, if they occured in-between our weather recording intervals... More about our weather records

Šiauliai Weather History for the Previous 24 Hours

Scroll right to see more
 ConditionsComfort  
Time TempWeatherWind HumidityBarometerVisibility
9:50 pm
Sat, May 18
61 °FClear.6 mph77%30.01 "Hg10 mi
9:20 pm63 °FSunny.8 mph73%30.01 "Hg10 mi
8:50 pm64 °FSunny.9 mph68%30.01 "Hg10 mi
8:20 pm66 °FSunny.9 mph64%30.01 "Hg10 mi
7:50 pm68 °FPassing clouds.10 mph60%30.01 "HgN/A
7:20 pm70 °FScattered showers. Passing clouds.9 mph50%30.01 "HgN/A
6:50 pm70 °FScattered showers. Scattered clouds.9 mph53%30.01 "HgN/A
6:20 pm73 °FSunny.8 mph44%30.01 "Hg10 mi
5:50 pm75 °FPassing clouds.9 mph41%30.01 "HgN/A
5:20 pm75 °FPassing clouds.7 mph44%30.01 "HgN/A
4:20 pm75 °FPassing clouds.6 mph39%30.04 "HgN/A
3:50 pm75 °FPassing clouds.7 mph41%30.04 "HgN/A
3:20 pm75 °FPassing clouds.7 mph44%30.04 "HgN/A
2:50 pm75 °FPassing clouds.5 mph41%30.04 "HgN/A
2:20 pm75 °FPassing clouds.7 mph39%30.07 "HgN/A
1:50 pm75 °FPassing clouds.6 mph41%30.07 "HgN/A
1:20 pm73 °FPassing clouds.6 mph44%30.07 "HgN/A
12:50 pm73 °FPassing clouds.7 mph44%30.07 "HgN/A
12:20 pm73 °FPassing clouds.6 mph41%30.07 "HgN/A
11:50 am73 °FPassing clouds.6 mph44%30.07 "HgN/A
11:20 am73 °FPassing clouds.6 mph44%30.09 "HgN/A
10:50 am72 °FPassing clouds.6 mph50%30.09 "HgN/A
9:50 am68 °FSunny.1 mph56%30.09 "Hg10 mi
9:20 am66 °FSunny.2 mph60%30.09 "Hg10 mi
8:50 am64 °FSunny.2 mph64%30.09 "Hg10 mi
8:20 am63 °FSunny.3 mph64%30.09 "Hg10 mi
7:50 am61 °FSunny.2 mph68%30.09 "Hg10 mi
7:20 am59 °FSunny.2 mph72%30.09 "Hg10 mi
6:50 am55 °FSunny.3 mph82%30.09 "Hg10 mi
6:20 am50 °FSunny.3 mph88%30.09 "Hg10 mi
5:50 am48 °FSunny.3 mph87%30.09 "Hg10 mi
5:20 am50 °FSunny.2 mph88%30.09 "Hg10 mi
4:50 am48 °FClear.2 mph87%30.09 "Hg10 mi
3:50 am52 °FClear.2 mph77%30.09 "HgN/A
2:50 am54 °FClear.2 mph72%30.09 "HgN/A
2:20 am54 °FClear.3 mph72%30.09 "HgN/A
1:50 am54 °FClear.5 mph77%30.09 "HgN/A
1:20 am54 °FClear.3 mph72%30.12 "Hg10 mi
12:50 am55 °FClear.5 mph67%30.12 "Hg10 mi
12:20 am57 °FClear.5 mph63%30.12 "Hg10 mi
11:50 pm
Fri, May 17
59 °FClear.7 mph59%30.12 "Hg10 mi
11:20 pm59 °FClear.6 mph63%30.12 "Hg10 mi
Weather by CustomWeather, © 2024

See weather overview